Time;durP1;ratioP1;P1;durP2;ratioP2;P2;SDS_P1;SDS_P2;PMS_P1;PMS_P2;Temp;Humidity;BMP_temperature;BMP_pressure;BME280_temperature;BME280_humidity;BME280_pressure;Samples;Min_cycle;Max_cycle;Signal;HPM_P1;HPM_P2
2021/12/02 00:01:38;;;;;;;1.45;0.47;;;5.50;84.20;;;;;;5057361;28;20074;-75
2021/12/02 00:04:04;;;;;;;0.90;0.52;;;5.50;85.60;;;;;;5057692;28;20024;-75
2021/12/02 00:06:30;;;;;;;0.47;0.30;;;5.50;85.50;;;;;;5057535;28;20028;-75
2021/12/02 00:08:56;;;;;;;0.63;0.32;;;5.40;85.10;;;;;;5057531;28;20043;-76
2021/12/02 00:11:22;;;;;;;0.60;0.30;;;5.30;86.20;;;;;;5057359;28;20461;-75
2021/12/02 00:13:55;;;;;;;3.35;0.52;;;5.30;86.10;;;;;;5057383;28;20032;-79
2021/12/02 00:16:29;;;;;;;0.45;0.30;;;5.30;86.50;;;;;;5057735;28;20032;-77
2021/12/02 00:21:45;;;;;;;0.32;0.32;;;5.20;87.00;;;;;;5075246;28;20036;-75
2021/12/02 00:24:14;;;;;;;2.00;0.57;;;5.30;87.50;;;;;;5057467;28;20043;-76
2021/12/02 00:26:40;;;;;;;1.98;0.70;;;5.20;87.40;;;;;;5057211;28;20028;-76
2021/12/02 00:29:08;;;;;;;0.57;0.40;;;5.10;87.50;;;;;;5057137;28;20047;-76
2021/12/02 00:31:36;;;;;;;0.47;0.47;;;5.00;87.90;;;;;;5057111;28;20063;-75
2021/12/02 00:34:06;;;;;;;1.27;0.50;;;5.00;88.30;;;;;;5056958;28;20143;-76
2021/12/02 00:36:34;;;;;;;0.20;0.20;;;4.90;88.00;;;;;;5056967;28;20044;-75
2021/12/02 00:39:05;;;;;;;0.20;0.20;;;4.80;88.40;;;;;;5057118;28;20032;-73
2021/12/02 00:41:30;;;;;;;2.92;0.55;;;4.80;88.60;;;;;;5057022;28;20020;-74
2021/12/02 00:43:57;;;;;;;0.70;0.30;;;4.80;88.70;;;;;;5057065;28;20112;-73
2021/12/02 00:46:26;;;;;;;0.45;0.20;;;4.80;88.30;;;;;;5056945;28;20024;-74
2021/12/02 00:48:53;;;;;;;1.17;0.20;;;4.90;88.10;;;;;;5056783;28;20028;-75
2021/12/02 00:51:20;;;;;;;0.20;0.20;;;4.90;88.00;;;;;;5056611;28;20107;-75
2021/12/02 00:53:52;;;;;;;0.20;0.10;;;4.90;88.00;;;;;;5056671;28;20047;-77
2021/12/02 00:56:23;;;;;;;1.33;0.40;;;4.90;88.20;;;;;;5056865;28;20472;-74
2021/12/02 00:58:50;;;;;;;0.95;0.20;;;4.90;88.20;;;;;;5056598;28;20032;-76
2021/12/02 01:01:18;;;;;;;0.40;0.40;;;4.90;87.40;;;;;;5056647;28;20060;-76
2021/12/02 01:03:46;;;;;;;0.65;0.30;;;4.90;87.60;;;;;;5056453;28;20449;-73
2021/12/02 01:06:12;;;;;;;0.20;0.20;;;4.80;87.50;;;;;;5056711;28;20025;-76
2021/12/02 01:08:40;;;;;;;0.20;0.13;;;4.90;87.70;;;;;;5056524;28;20021;-75
2021/12/02 01:11:07;;;;;;;0.38;0.20;;;4.90;87.50;;;;;;5056406;28;20494;-75
2021/12/02 01:13:33;;;;;;;0.43;0.20;;;4.80;87.40;;;;;;5055950;28;20435;-74
2021/12/02 01:15:58;;;;;;;0.20;0.20;;;4.90;87.50;;;;;;5056204;28;20021;-75
2021/12/02 01:18:24;;;;;;;0.55;0.28;;;4.90;87.80;;;;;;5056245;28;20032;-74
2021/12/02 01:20:52;;;;;;;0.63;0.40;;;5.00;87.90;;;;;;5056272;28;20021;-75
2021/12/02 01:23:19;;;;;;;1.90;0.20;;;5.00;87.90;;;;;;5057096;28;20028;-75
2021/12/02 01:26:05;;;;;;;2.05;0.45;;;5.00;87.90;;;;;;5056325;28;20499;-75
2021/12/02 01:28:32;;;;;;;0.40;0.30;;;5.00;87.90;;;;;;5055834;28;20028;-74
2021/12/02 01:30:59;;;;;;;1.45;0.60;;;5.10;88.00;;;;;;5056282;28;20089;-75
2021/12/02 01:33:27;;;;;;;0.52;0.40;;;5.20;88.00;;;;;;5073545;28;20106;-74
2021/12/02 01:35:58;;;;;;;0.50;0.30;;;5.20;88.00;;;;;;5074062;28;20090;-75
2021/12/02 01:38:25;;;;;;;0.25;0.20;;;5.20;87.80;;;;;;5055944;28;20111;-74
2021/12/02 01:40:53;;;;;;;0.40;0.30;;;5.10;87.50;;;;;;5055696;28;20115;-75
2021/12/02 01:43:22;;;;;;;0.95;0.40;;;5.10;87.60;;;;;;5022873;28;20423;-74
2021/12/02 01:45:48;;;;;;;0.77;0.50;;;5.00;87.50;;;;;;5055760;28;20380;-74
2021/12/02 01:48:25;;;;;;;2.25;0.70;;;4.90;86.60;;;;;;5055760;28;20024;-74
2021/12/02 01:51:06;;;;;;;1.35;0.60;;;4.90;86.50;;;;;;5055757;28;20077;-77
2021/12/02 01:53:37;;;;;;;0.82;0.52;;;4.90;85.60;;;;;;5055692;28;20393;-74
2021/12/02 01:56:12;;;;;;;1.55;0.38;;;4.90;86.00;;;;;;5055824;28;20024;-77
2021/12/02 01:58:46;;;;;;;2.20;0.65;;;4.90;86.10;;;;;;5055542;28;20565;-76
2021/12/02 02:01:25;;;;;;;2.15;0.47;;;5.00;85.10;;;;;;5055537;28;20039;-79
2021/12/02 02:03:52;;;;;;;1.83;0.45;;;5.00;84.50;;;;;;5055039;28;20024;-75
2021/12/02 02:06:31;;;;;;;0.95;0.30;;;4.90;84.40;;;;;;5055456;28;20035;-78
2021/12/02 02:08:58;;;;;;;0.52;0.32;;;5.00;84.00;;;;;;5055312;28;20021;-78
2021/12/02 02:11:26;;;;;;;0.70;0.22;;;4.90;84.10;;;;;;5054878;28;20028;-78
2021/12/02 02:13:52;;;;;;;0.98;0.30;;;4.90;84.20;;;;;;5073048;28;20036;-78
2021/12/02 02:16:18;;;;;;;2.22;0.50;;;4.90;83.50;;;;;;5055401;28;20070;-76
2021/12/02 02:18:44;;;;;;;1.40;0.38;;;4.80;83.10;;;;;;5055142;28;20086;-74
2021/12/02 02:21:13;;;;;;;0.88;0.35;;;4.90;83.00;;;;;;5055195;28;20123;-74
2021/12/02 02:23:44;;;;;;;2.75;0.20;;;4.90;82.10;;;;;;5055153;28;20389;-74
2021/12/02 02:26:10;;;;;;;2.58;0.30;;;4.80;82.30;;;;;;5055151;28;20077;-74
2021/12/02 02:28:36;;;;;;;1.00;0.57;;;4.90;82.20;;;;;;5054801;28;20024;-74
2021/12/02 02:31:02;;;;;;;0.50;0.30;;;4.90;82.30;;;;;;5055335;28;20140;-75
2021/12/02 02:33:36;;;;;;;2.05;0.30;;;4.90;82.10;;;;;;5055111;28;20029;-74
2021/12/02 02:36:04;;;;;;;0.68;0.30;;;4.90;82.30;;;;;;5055411;28;20040;-74
2021/12/02 02:38:30;;;;;;;0.75;0.32;;;4.80;82.70;;;;;;5054845;28;20025;-74
2021/12/02 02:40:59;;;;;;;1.40;0.40;;;4.90;82.90;;;;;;5055040;28;20021;-74
2021/12/02 02:43:26;;;;;;;0.55;0.47;;;4.80;83.20;;;;;;5054905;28;20036;-74
2021/12/02 02:45:52;;;;;;;2.38;0.50;;;4.80;83.00;;;;;;5055011;28;20098;-74
2021/12/02 02:48:17;;;;;;;1.05;0.60;;;4.70;83.50;;;;;;5054959;28;20060;-73
2021/12/02 02:50:43;;;;;;;3.78;0.40;;;4.80;83.70;;;;;;5054836;28;20017;-74
2021/12/02 02:53:21;;;;;;;0.77;0.30;;;4.80;83.80;;;;;;5054904;28;20511;-74
2021/12/02 02:56:05;;;;;;;2.67;0.40;;;4.70;84.30;;;;;;5072866;28;20052;-75
2021/12/02 03:01:31;;;;;;;0.50;0.40;;;4.70;84.60;;;;;;5073036;28;20082;-74
2021/12/02 03:04:16;;;;;;;2.30;0.50;;;4.60;85.40;;;;;;5054677;28;20032;-74
2021/12/02 03:12:07;;;;;;;2.78;0.52;;;4.50;85.80;;;;;;5072632;28;20025;-75
2021/12/02 03:17:07;;;;;;;2.85;0.60;;;4.60;85.90;;;;;;5076596;28;20086;-74
2021/12/02 03:19:34;;;;;;;1.55;0.55;;;4.60;85.80;;;;;;5058473;28;20032;-75
2021/12/02 03:22:00;;;;;;;2.35;0.68;;;4.60;85.60;;;;;;5058554;28;20025;-75
2021/12/02 03:24:26;;;;;;;0.43;0.40;;;4.60;85.60;;;;;;5058315;28;20054;-75
2021/12/02 03:26:52;;;;;;;1.70;0.50;;;4.70;85.50;;;;;;5058651;28;20472;-74
2021/12/02 03:29:17;;;;;;;0.73;0.30;;;4.70;85.20;;;;;;5054976;28;20472;-75
2021/12/02 03:31:43;;;;;;;3.63;0.40;;;4.70;84.90;;;;;;5058286;28;20464;-74
2021/12/02 03:34:09;;;;;;;1.65;0.60;;;4.70;85.00;;;;;;5058195;28;20033;-74
2021/12/02 03:36:36;;;;;;;5.10;1.02;;;4.60;85.50;;;;;;5058269;28;20025;-74
2021/12/02 03:39:04;;;;;;;1.95;0.85;;;4.60;86.80;;;;;;5058473;28;20104;-74
2021/12/02 03:41:30;;;;;;;1.08;0.50;;;4.50;88.00;;;;;;5057992;28;20155;-73
2021/12/02 03:43:56;;;;;;;7.38;2.33;;;4.40;88.40;;;;;;5058375;28;20024;-75
2021/12/02 03:46:24;;;;;;;2.35;0.90;;;4.30;89.40;;;;;;5058258;28;20035;-73
2021/12/02 03:48:52;;;;;;;0.55;0.40;;;4.20;88.30;;;;;;5058284;28;20021;-73
2021/12/02 03:51:17;;;;;;;2.38;0.45;;;4.20;88.40;;;;;;5059044;28;20074;-74
2021/12/02 03:53:44;;;;;;;1.13;0.43;;;4.10;88.60;;;;;;5066525;28;20036;-75
2021/12/02 03:56:10;;;;;;;2.45;0.68;;;4.20;88.50;;;;;;5066474;28;20032;-73
2021/12/02 03:58:37;;;;;;;3.22;0.73;;;4.20;88.40;;;;;;5065926;28;20465;-74
2021/12/02 04:01:04;;;;;;;1.58;0.50;;;4.20;88.20;;;;;;5064692;28;20017;-73
2021/12/02 04:03:30;;;;;;;4.05;1.30;;;4.20;88.10;;;;;;5061647;28;20032;-73
2021/12/02 04:05:56;;;;;;;5.47;1.50;;;4.20;88.20;;;;;;5064570;28;20028;-76
2021/12/02 04:08:29;;;;;;;4.82;2.00;;;4.30;88.40;;;;;;5058573;28;20031;-74
2021/12/02 04:11:00;;;;;;;5.05;1.77;;;4.30;88.20;;;;;;5075579;28;20446;-74
2021/12/02 04:13:30;;;;;;;5.38;1.52;;;4.40;87.90;;;;;;5057507;28;20036;-74
2021/12/02 04:16:01;;;;;;;4.80;0.98;;;4.40;87.80;;;;;;5057581;28;20029;-74
2021/12/02 04:18:26;;;;;;;1.65;0.80;;;4.40;87.40;;;;;;5057518;28;20047;-74
2021/12/02 04:20:52;;;;;;;2.47;0.60;;;4.40;87.30;;;;;;5057812;28;20024;-74
2021/12/02 04:23:18;;;;;;;4.55;0.60;;;4.40;87.00;;;;;;5057534;28;20024;-74
2021/12/02 04:25:43;;;;;;;2.42;0.50;;;4.40;86.80;;;;;;5057182;28;20104;-74
2021/12/02 04:28:09;;;;;;;2.60;0.60;;;4.50;86.80;;;;;;5056842;28;20029;-74
2021/12/02 04:30:35;;;;;;;0.50;0.50;;;4.50;86.30;;;;;;5056744;28;20439;-75
2021/12/02 04:33:00;;;;;;;0.90;0.55;;;4.50;86.30;;;;;;5057086;28;20047;-74
2021/12/02 04:35:27;;;;;;;1.27;0.45;;;4.50;86.20;;;;;;5057094;28;20054;-74
2021/12/02 04:37:53;;;;;;;6.15;3.63;;;4.50;86.30;;;;;;5057082;28;20479;-74
2021/12/02 04:40:31;;;;;;;8.05;4.70;;;4.50;86.50;;;;;;5063637;28;20025;-75
2021/12/02 04:42:57;;;;;;;6.70;3.45;;;4.50;86.70;;;;;;5045097;28;20036;-75
2021/12/02 04:45:23;;;;;;;4.03;3.00;;;4.50;86.70;;;;;;5059467;28;20446;-74
2021/12/02 04:47:48;;;;;;;6.85;2.80;;;4.50;86.70;;;;;;5056785;28;20488;-74
2021/12/02 04:50:14;;;;;;;4.13;2.20;;;4.40;86.70;;;;;;5056929;28;20028;-74
2021/12/02 04:52:42;;;;;;;6.15;2.67;;;4.40;86.70;;;;;;5056160;28;20361;-75
2021/12/02 04:55:09;;;;;;;5.20;3.17;;;4.40;86.60;;;;;;5056653;28;20496;-75
2021/12/02 04:57:34;;;;;;;5.97;3.20;;;4.40;86.50;;;;;;5039912;28;20411;-75
2021/12/02 05:00:00;;;;;;;7.50;3.42;;;4.40;86.50;;;;;;5056565;28;20032;-75
2021/12/02 05:02:26;;;;;;;9.60;2.00;;;4.40;86.50;;;;;;5056581;28;20129;-75
2021/12/02 05:04:52;;;;;;;3.05;1.10;;;4.40;84.70;;;;;;5056612;28;20476;-74
2021/12/02 05:07:17;;;;;;;6.45;0.90;;;4.40;83.40;;;;;;5056551;28;20028;-75
2021/12/02 05:09:44;;;;;;;3.45;0.80;;;4.30;83.00;;;;;;5056487;28;20018;-74
2021/12/02 05:12:10;;;;;;;2.88;0.60;;;4.30;82.10;;;;;;5056209;28;20025;-75
2021/12/02 05:14:35;;;;;;;2.90;0.60;;;4.40;82.70;;;;;;5056600;28;20365;-75
2021/12/02 05:17:01;;;;;;;2.97;0.60;;;4.40;81.20;;;;;;5056126;28;20128;-75
2021/12/02 05:19:26;;;;;;;1.73;0.93;;;4.40;82.30;;;;;;5056182;28;20506;-74
2021/12/02 05:21:52;;;;;;;2.67;0.95;;;4.50;82.30;;;;;;5056230;28;20027;-75
2021/12/02 05:24:18;;;;;;;2.85;0.63;;;4.40;81.40;;;;;;5056055;28;20032;-75
2021/12/02 05:26:43;;;;;;;1.33;0.60;;;4.40;81.70;;;;;;5055934;28;20025;-75
2021/12/02 05:29:10;;;;;;;1.95;0.60;;;4.50;81.80;;;;;;5039148;28;20049;-75
2021/12/02 05:31:36;;;;;;;2.25;0.70;;;4.50;81.30;;;;;;5055645;28;20503;-75
2021/12/02 05:34:01;;;;;;;1.45;0.82;;;4.60;81.30;;;;;;5055592;28;20036;-75
2021/12/02 05:36:27;;;;;;;1.30;0.50;;;4.60;81.30;;;;;;5055769;28;20044;-75
2021/12/02 05:38:52;;;;;;;2.47;1.00;;;4.60;81.00;;;;;;5055124;28;20396;-75
2021/12/02 05:41:19;;;;;;;2.50;1.20;;;4.60;81.00;;;;;;5055785;28;20448;-75
2021/12/02 05:43:45;;;;;;;0.20;0.10;;;4.50;81.20;;;;;;5039072;28;20040;-75
2021/12/02 05:46:11;;;;;;;1.35;0.40;;;4.50;81.20;;;;;;5055977;28;20020;-74
2021/12/02 05:48:37;;;;;;;0.38;0.22;;;4.50;81.30;;;;;;5056268;28;20028;-75
2021/12/02 05:51:02;;;;;;;3.75;1.30;;;4.50;81.00;;;;;;5055506;28;20046;-75
2021/12/02 05:53:28;;;;;;;3.05;1.48;;;4.50;81.30;;;;;;5055467;28;20044;-75
2021/12/02 05:55:54;;;;;;;2.45;0.40;;;4.50;81.30;;;;;;5056268;28;20031;-76
2021/12/02 05:58:19;;;;;;;1.52;0.50;;;4.50;80.70;;;;;;5055598;28;20024;-75
2021/12/02 06:00:46;;;;;;;1.88;0.50;;;4.50;80.20;;;;;;5055173;28;20030;-76
2021/12/02 06:03:12;;;;;;;1.77;0.40;;;4.50;80.30;;;;;;5038986;28;20036;-76
2021/12/02 06:05:38;;;;;;;1.77;0.38;;;4.50;79.80;;;;;;5056089;28;20469;-75
2021/12/02 06:08:04;;;;;;;0.55;0.38;;;4.50;79.40;;;;;;5055228;28;20024;-74
2021/12/02 06:10:31;;;;;;;2.15;0.60;;;4.50;79.50;;;;;;5055159;28;20059;-76
2021/12/02 06:12:58;;;;;;;1.67;0.60;;;4.50;79.80;;;;;;5037886;28;20515;-76
2021/12/02 06:15:26;;;;;;;1.50;0.32;;;4.40;81.00;;;;;;5055537;28;20036;-77
2021/12/02 06:17:52;;;;;;;2.38;0.38;;;4.40;80.10;;;;;;5055603;28;20025;-75
2021/12/02 06:20:18;;;;;;;1.83;0.47;;;4.40;80.30;;;;;;5054270;28;20043;-75
2021/12/02 06:22:46;;;;;;;1.85;0.70;;;4.40;80.50;;;;;;5055704;28;20031;-76
2021/12/02 06:27:42;;;;;;;2.30;0.70;;;4.30;81.10;;;;;;5073336;28;20021;-76
2021/12/02 06:30:11;;;;;;;0.77;0.43;;;4.30;81.30;;;;;;5045915;28;20049;-75
2021/12/02 06:32:36;;;;;;;1.33;0.60;;;4.20;81.50;;;;;;5055100;28;20055;-74
2021/12/02 06:35:02;;;;;;;2.35;0.63;;;4.30;81.40;;;;;;5054574;28;20021;-75
2021/12/02 06:37:29;;;;;;;2.10;0.55;;;4.20;81.40;;;;;;5054755;28;20385;-73
2021/12/02 06:39:54;;;;;;;2.85;0.50;;;4.20;81.40;;;;;;5055213;28;20044;-76
2021/12/02 06:42:20;;;;;;;2.08;0.80;;;4.20;81.80;;;;;;5054634;28;20031;-76
2021/12/02 06:44:47;;;;;;;1.75;0.60;;;4.50;82.00;;;;;;5053143;28;20029;-77
2021/12/02 06:47:13;;;;;;;0.98;0.50;;;4.60;80.30;;;;;;5018024;28;20079;-75
2021/12/02 06:49:40;;;;;;;1.80;0.82;;;4.50;80.20;;;;;;5035682;28;20485;-75
2021/12/02 06:52:10;;;;;;;2.53;0.90;;;4.50;80.20;;;;;;5039239;28;20047;-75
2021/12/02 06:54:38;;;;;;;0.90;0.47;;;4.40;80.20;;;;;;5056812;28;20074;-75
2021/12/02 06:57:04;;;;;;;3.22;0.88;;;4.40;80.70;;;;;;5025131;28;20028;-76
2021/12/02 06:59:31;;;;;;;4.43;2.42;;;4.40;80.60;;;;;;5042658;28;20036;-76
2021/12/02 07:01:57;;;;;;;0.80;0.50;;;4.40;80.60;;;;;;5038714;28;20118;-76
2021/12/02 07:04:22;;;;;;;1.83;0.82;;;4.40;79.60;;;;;;5038666;28;20052;-76
2021/12/02 07:06:48;;;;;;;1.65;0.47;;;4.30;79.90;;;;;;5039020;28;20083;-75
2021/12/02 07:09:15;;;;;;;5.43;3.00;;;4.30;79.80;;;;;;5056743;28;20033;-75
2021/12/02 07:11:41;;;;;;;0.98;0.50;;;4.30;80.20;;;;;;5038653;28;20048;-75
2021/12/02 07:14:12;;;;;;;2.45;0.60;;;4.30;79.70;;;;;;5038524;28;20091;-77
2021/12/02 07:16:41;;;;;;;1.17;0.35;;;4.30;79.60;;;;;;5038486;28;20021;-76
2021/12/02 07:19:08;;;;;;;3.30;0.85;;;4.40;79.80;;;;;;5038553;28;20031;-76
2021/12/02 07:21:39;;;;;;;3.40;0.45;;;4.30;80.10;;;;;;5038491;28;20096;-74
2021/12/02 07:24:07;;;;;;;2.08;0.63;;;4.30;80.40;;;;;;5054901;28;20029;-74
2021/12/02 07:26:35;;;;;;;3.30;0.77;;;4.30;81.00;;;;;;5054793;28;20469;-75
2021/12/02 07:29:01;;;;;;;3.88;0.77;;;4.30;81.20;;;;;;5038283;28;20514;-74
2021/12/02 07:31:31;;;;;;;2.30;1.10;;;4.40;80.50;;;;;;5038052;28;20029;-76
2021/12/02 07:33:59;;;;;;;2.95;1.25;;;4.50;80.40;;;;;;5038030;28;20052;-76
2021/12/02 07:36:25;;;;;;;1.15;0.68;;;4.60;80.30;;;;;;5037828;28;20021;-76
2021/12/02 07:38:53;;;;;;;2.83;1.08;;;4.70;80.40;;;;;;5037937;28;20074;-76
2021/12/02 07:41:18;;;;;;;2.78;1.10;;;4.90;80.10;;;;;;5037533;28;20029;-76
2021/12/02 07:43:44;;;;;;;1.77;0.82;;;5.00;80.10;;;;;;5037986;28;20152;-76
2021/12/02 07:46:10;;;;;;;5.85;2.35;;;5.00;80.20;;;;;;5055797;28;20469;-76
2021/12/02 07:48:36;;;;;;;6.10;2.95;;;4.90;80.90;;;;;;5037754;28;20040;-77
2021/12/02 07:51:15;;;;;;;3.55;1.45;;;4.80;82.00;;;;;;5038014;28;20021;-76
2021/12/02 07:53:42;;;;;;;2.08;1.10;;;4.70;82.80;;;;;;5037299;28;20099;-76
2021/12/02 07:56:11;;;;;;;2.75;0.88;;;4.60;83.50;;;;;;5037884;28;20128;-76
2021/12/02 07:58:41;;;;;;;2.20;1.05;;;4.50;84.20;;;;;;5037473;28;20078;-76
2021/12/02 08:01:08;;;;;;;4.97;1.60;;;4.40;85.20;;;;;;5036697;28;20029;-73
2021/12/02 08:03:33;;;;;;;3.78;1.17;;;4.20;86.20;;;;;;5037529;28;20029;-76
2021/12/02 08:05:59;;;;;;;6.85;1.77;;;4.10;87.00;;;;;;5037349;28;20040;-75
2021/12/02 08:08:25;;;;;;;3.55;1.40;;;4.00;86.90;;;;;;5037274;28;20036;-75
2021/12/02 08:10:50;;;;;;;2.90;1.45;;;4.10;86.60;;;;;;5037645;28;20500;-75
2021/12/02 08:13:17;;;;;;;4.53;1.85;;;4.00;86.60;;;;;;5037158;28;20091;-75
2021/12/02 08:15:42;;;;;;;6.82;1.60;;;4.00;86.70;;;;;;5037493;28;20053;-74
2021/12/02 08:18:09;;;;;;;4.25;1.45;;;4.20;86.90;;;;;;5037537;28;20053;-76
2021/12/02 08:20:36;;;;;;;3.53;1.85;;;4.30;86.80;;;;;;5037536;28;20170;-75
2021/12/02 08:23:03;;;;;;;8.05;2.03;;;4.40;86.10;;;;;;5055361;28;20032;-75
2021/12/02 08:25:30;;;;;;;9.27;3.03;;;4.40;85.50;;;;;;5037155;28;20116;-75
2021/12/02 08:27:59;;;;;;;4.43;1.30;;;4.50;85.30;;;;;;5037210;28;20025;-75
2021/12/02 08:30:27;;;;;;;2.10;0.93;;;4.60;83.20;;;;;;5020629;28;20138;-76
2021/12/02 08:32:54;;;;;;;1.67;0.90;;;4.60;82.70;;;;;;5037287;28;20037;-75
2021/12/02 08:35:20;;;;;;;2.53;1.08;;;4.70;81.60;;;;;;5037162;28;20017;-75
2021/12/02 08:37:48;;;;;;;2.15;0.93;;;4.80;80.10;;;;;;5037312;28;20075;-75
2021/12/02 08:40:18;;;;;;;4.43;1.00;;;4.80;80.00;;;;;;5037009;28;20028;-74
2021/12/02 08:42:47;;;;;;;3.05;0.85;;;4.70;80.30;;;;;;5036844;28;20028;-73
2021/12/02 08:45:14;;;;;;;3.67;0.63;;;4.80;79.90;;;;;;5037294;28;20333;-76
2021/12/02 08:47:44;;;;;;;1.60;0.77;;;4.80;78.80;;;;;;5037134;28;20055;-75
2021/12/02 08:50:14;;;;;;;2.05;0.80;;;4.90;78.20;;;;;;5037248;28;20082;-76
2021/12/02 08:52:40;;;;;;;3.80;0.80;;;4.90;78.40;;;;;;5036598;28;20116;-75
2021/12/02 08:55:06;;;;;;;2.22;0.98;;;5.10;78.40;;;;;;5036871;28;20061;-75
2021/12/02 08:57:32;;;;;;;11.32;1.15;;;5.30;77.00;;;;;;5036649;28;20504;-76
2021/12/02 08:59:57;;;;;;;2.47;0.43;;;5.80;81.90;;;;;;5037141;28;20111;-83
2021/12/02 09:02:23;;;;;;;3.72;1.02;;;6.40;76.40;;;;;;5037275;28;20026;-86
2021/12/02 09:04:49;;;;;;;1.17;0.60;;;6.60;73.10;;;;;;5037469;28;20029;-87
2021/12/02 09:07:15;;;;;;;2.03;0.60;;;7.00;71.90;;;;;;5027664;28;20028;-84
2021/12/02 09:09:41;;;;;;;4.38;0.50;;;6.70;68.20;;;;;;5022376;28;20041;-80
2021/12/02 09:12:08;;;;;;;2.42;0.60;;;6.30;70.40;;;;;;5036433;28;20017;-81
2021/12/02 09:14:36;;;;;;;2.28;0.52;;;6.20;72.20;;;;;;5036663;28;20133;-80
2021/12/02 09:17:13;;;;;;;3.53;0.57;;;6.00;72.30;;;;;;5036249;28;20025;-82
2021/12/02 09:19:38;;;;;;;1.30;0.60;;;5.80;72.10;;;;;;5036039;28;20036;-81
2021/12/02 09:22:05;;;;;;;3.05;0.80;;;5.50;73.70;;;;;;5036412;28;20033;-82
2021/12/02 09:24:31;;;;;;;4.07;1.02;;;5.30;74.90;;;;;;5019959;28;20036;-82
2021/12/02 09:26:59;;;;;;;1.63;0.68;;;5.40;75.20;;;;;;5054147;28;20029;-82
2021/12/02 09:29:27;;;;;;;1.17;0.55;;;5.80;73.30;;;;;;5054014;28;20052;-77
2021/12/02 09:31:55;;;;;;;4.28;0.90;;;5.80;72.80;;;;;;5035768;28;20021;-76
2021/12/02 09:34:20;;;;;;;2.35;0.63;;;5.80;72.80;;;;;;5035381;28;20036;-75
2021/12/02 09:36:50;;;;;;;2.42;0.88;;;5.60;73.70;;;;;;5035429;28;20025;-76
2021/12/02 09:39:16;;;;;;;2.42;0.80;;;5.70;74.10;;;;;;5019075;28;20029;-74
2021/12/02 09:41:44;;;;;;;3.97;0.82;;;6.00;73.00;;;;;;5034801;28;20021;-75
2021/12/02 09:44:10;;;;;;;1.85;0.70;;;6.40;71.70;;;;;;5035235;28;20104;-75
2021/12/02 09:46:39;;;;;;;3.22;0.63;;;6.60;70.50;;;;;;5018868;28;20513;-75
2021/12/02 09:49:06;;;;;;;1.73;0.60;;;7.00;69.40;;;;;;5019609;28;20033;-76
2021/12/02 09:51:38;;;;;;;3.80;1.10;;;7.20;69.20;;;;;;5035389;28;20059;-75
2021/12/02 09:54:08;;;;;;;0.95;0.60;;;7.50;68.30;;;;;;5035476;28;20032;-76
2021/12/02 09:56:37;;;;;;;1.50;0.60;;;7.80;66.10;;;;;;5035477;28;20024;-74
2021/12/02 09:59:12;;;;;;;1.85;0.30;;;8.00;64.70;;;;;;5035407;28;20052;-76
2021/12/02 10:01:44;;;;;;;0.80;0.43;;;7.70;66.50;;;;;;5035325;28;20036;-76
2021/12/02 10:04:11;;;;;;;1.75;0.52;;;8.00;65.00;;;;;;5035645;28;20020;-76
2021/12/02 10:06:40;;;;;;;1.40;0.30;;;8.20;64.20;;;;;;5035713;28;20499;-77
2021/12/02 10:09:21;;;;;;;0.90;0.30;;;8.50;62.80;;;;;;5023892;28;20067;-77
2021/12/02 10:11:58;;;;;;;3.17;0.63;;;8.30;62.60;;;;;;5035508;28;20481;-77
2021/12/02 10:14:34;;;;;;;0.93;0.22;;;8.20;64.00;;;;;;5035425;28;20044;-77
2021/12/02 10:17:11;;;;;;;;;;;8.30;62.70;;;;;;5035639;28;20021;-77
2021/12/02 10:19:37;;;;;;;0.75;0.40;;;8.30;62.30;;;;;;5035624;28;20007;-77
2021/12/02 10:22:11;;;;;;;1.85;1.10;;;8.00;63.80;;;;;;5035414;28;20067;-78
2021/12/02 10:24:44;;;;;;;2.33;0.50;;;7.80;64.60;;;;;;5052837;28;20021;-78
2021/12/02 10:27:12;;;;;;;0.38;0.28;;;7.50;65.40;;;;;;5019021;28;20041;-78
2021/12/02 10:29:39;;;;;;;0.88;0.52;;;7.20;65.70;;;;;;5035296;28;20040;-75
2021/12/02 10:32:14;;;;;;;1.13;0.40;;;6.80;68.10;;;;;;5053104;28;20025;-76
2021/12/02 10:34:56;;;;;;;2.78;0.38;;;6.40;70.30;;;;;;5035064;28;20028;-76
2021/12/02 10:37:31;;;;;;;3.03;0.98;;;6.20;71.50;;;;;;5051980;28;20060;-75
2021/12/02 10:40:10;;;;;;;0.98;0.35;;;6.00;73.40;;;;;;5035006;28;20119;-76
2021/12/02 10:42:42;;;;;;;1.30;0.55;;;5.70;73.20;;;;;;5052730;28;20087;-75
2021/12/02 10:45:26;;;;;;;1.25;0.57;;;5.70;73.60;;;;;;5052937;28;20033;-77
2021/12/02 10:47:54;;;;;;;4.60;0.90;;;5.60;74.90;;;;;;5034467;28;20082;-75
2021/12/02 10:50:22;;;;;;;2.38;0.60;;;5.60;76.20;;;;;;5001047;28;20117;-78
2021/12/02 10:52:48;;;;;;;1.27;0.93;;;5.50;77.20;;;;;;5019090;28;20553;-77
2021/12/02 10:55:16;;;;;;;2.60;1.10;;;5.50;77.50;;;;;;5018363;28;20067;-78
2021/12/02 10:57:47;;;;;;;3.38;0.90;;;5.60;77.50;;;;;;5034801;28;20025;-75
2021/12/02 11:00:19;;;;;;;5.75;1.90;;;5.70;76.40;;;;;;5034505;28;20032;-74
2021/12/02 11:02:52;;;;;;;0.70;0.40;;;5.70;75.60;;;;;;5034100;28;20063;-74
2021/12/02 11:05:22;;;;;;;2.75;1.00;;;5.50;75.70;;;;;;5034256;28;20033;-73
2021/12/02 11:07:56;;;;;;;0.38;0.38;;;5.40;76.50;;;;;;5034678;28;20116;-74
2021/12/02 11:10:23;;;;;;;1.92;1.00;;;5.40;76.60;;;;;;5034122;28;20032;-73
2021/12/02 11:12:51;;;;;;;2.00;0.70;;;5.50;77.70;;;;;;5034057;28;20025;-74
2021/12/02 11:15:18;;;;;;;1.77;0.90;;;5.50;76.10;;;;;;5034479;28;20078;-77
2021/12/02 11:17:57;;;;;;;2.08;0.90;;;5.50;77.10;;;;;;5034492;28;20025;-78
2021/12/02 11:20:30;;;;;;;3.08;1.25;;;5.40;77.50;;;;;;5034347;28;20477;-75
2021/12/02 11:23:14;;;;;;;1.30;0.50;;;5.20;78.10;;;;;;5034156;28;20029;-76
2021/12/02 11:25:57;;;;;;;0.52;0.52;;;5.30;78.00;;;;;;5034017;28;20112;-76
2021/12/02 11:28:27;;;;;;;1.65;0.80;;;5.30;77.90;;;;;;5034051;28;20378;-76
2021/12/02 11:30:53;;;;;;;0.70;0.50;;;5.20;77.80;;;;;;5050151;28;20062;-74
2021/12/02 11:33:19;;;;;;;3.28;1.08;;;5.20;77.90;;;;;;5034230;28;20043;-74
2021/12/02 11:35:47;;;;;;;0.85;0.60;;;5.20;78.60;;;;;;5035321;28;20119;-74
2021/12/02 11:38:23;;;;;;;1.83;0.38;;;5.10;79.40;;;;;;5037879;28;20051;-75
2021/12/02 11:40:57;;;;;;;0.57;0.40;;;5.20;78.70;;;;;;5038163;28;20056;-74
2021/12/02 11:43:38;;;;;;;0.50;0.50;;;5.20;78.20;;;;;;5038045;28;20025;-74
2021/12/02 11:46:07;;;;;;;1.48;0.60;;;5.10;78.70;;;;;;5037869;28;20515;-76
2021/12/02 11:48:39;;;;;;;0.73;0.20;;;5.00;79.40;;;;;;5037071;28;20026;-75
2021/12/02 11:51:14;;;;;;;0.30;0.20;;;4.90;80.50;;;;;;5055027;28;20504;-76
2021/12/02 11:53:41;;;;;;;2.08;1.00;;;4.70;81.20;;;;;;5021858;28;20047;-75
2021/12/02 11:56:11;;;;;;;4.70;2.33;;;4.50;82.60;;;;;;5037513;28;20025;-76
2021/12/02 11:58:37;;;;;;;1.92;1.17;;;4.30;84.20;;;;;;5037069;28;20029;-75
2021/12/02 12:01:04;;;;;;;1.65;0.77;;;4.20;84.00;;;;;;5037288;28;20111;-75
2021/12/02 12:03:35;;;;;;;3.10;1.20;;;4.10;84.40;;;;;;5036919;28;20457;-75
2021/12/02 12:06:07;;;;;;;0.40;0.40;;;3.90;84.90;;;;;;5037142;28;20385;-74
2021/12/02 12:08:41;;;;;;;1.65;0.40;;;3.70;86.50;;;;;;5037579;28;20032;-75
2021/12/02 12:11:25;;;;;;;0.65;0.45;;;3.60;86.90;;;;;;5037636;28;20025;-76
2021/12/02 12:13:53;;;;;;;0.50;0.47;;;3.60;86.80;;;;;;5055285;28;20037;-74
2021/12/02 12:16:24;;;;;;;0.95;0.50;;;3.60;87.00;;;;;;5037473;28;20070;-78
2021/12/02 12:18:52;;;;;;;0.90;0.70;;;3.60;86.60;;;;;;5037172;28;20090;-76
2021/12/02 12:21:38;;;;;;;1.75;1.13;;;3.50;86.00;;;;;;5054887;28;20029;-75
2021/12/02 12:24:09;;;;;;;0.88;0.60;;;3.50;85.80;;;;;;5036962;28;20110;-77
2021/12/02 12:26:43;;;;;;;1.25;0.68;;;3.30;86.10;;;;;;5037133;28;20029;-76
2021/12/02 12:29:19;;;;;;;1.63;0.70;;;3.20;86.60;;;;;;5037262;28;20033;-76
2021/12/02 12:31:51;;;;;;;;;;;3.20;86.80;;;;;;5037760;28;20025;-80
2021/12/02 12:34:30;;;;;;;1.00;0.75;;;3.20;87.00;;;;;;5036425;28;19920;-78
2021/12/02 12:37:28;;;;;;;1.90;0.70;;;3.20;87.10;;;;;;5058080;28;20036;-79
2021/12/02 12:40:12;;;;;;;3.78;1.30;;;3.30;87.40;;;;;;5041134;28;20036;-79
2021/12/02 12:42:58;;;;;;;5.38;2.80;;;3.30;87.60;;;;;;5035960;28;20043;-79
2021/12/02 12:45:39;;;;;;;7.90;4.40;;;3.40;87.40;;;;;;5043186;28;20063;-81
2021/12/02 12:48:07;;;;;;;2.63;1.50;;;3.30;87.30;;;;;;5036201;28;20047;-76
2021/12/02 12:50:38;;;;;;;0.75;0.60;;;3.10;87.10;;;;;;5037745;28;20047;-75
2021/12/02 12:53:08;;;;;;;1.38;0.98;;;3.00;87.00;;;;;;5037175;28;20029;-76
2021/12/02 12:55:39;;;;;;;1.60;0.65;;;2.90;87.10;;;;;;5037125;28;20021;-75
2021/12/02 12:58:17;;;;;;;1.92;0.80;;;2.80;87.40;;;;;;5037640;28;20068;-77
2021/12/02 13:00:55;;;;;;;0.90;0.65;;;2.70;87.90;;;;;;5036960;28;20025;-77
2021/12/02 13:03:31;;;;;;;1.23;0.77;;;2.70;88.10;;;;;;5037179;28;20527;-76
2021/12/02 13:06:21;;;;;;;0.85;0.60;;;2.70;89.00;;;;;;5054443;28;20021;-78
2021/12/02 13:09:05;;;;;;;2.22;0.90;;;2.70;88.40;;;;;;5038149;28;20028;-77
2021/12/02 13:11:34;;;;;;;1.42;0.60;;;2.80;88.60;;;;;;5036797;28;20036;-77
2021/12/02 13:14:04;;;;;;;1.13;0.90;;;2.80;88.60;;;;;;5036716;28;20057;-77
2021/12/02 13:16:31;;;;;;;1.25;1.00;;;3.00;88.80;;;;;;5054641;28;20108;-77
2021/12/02 13:19:17;;;;;;;2.08;1.20;;;3.20;89.30;;;;;;5054681;28;20072;-77
2021/12/02 13:21:45;;;;;;;1.95;1.17;;;3.40;87.70;;;;;;5054343;28;20028;-76
2021/12/02 13:24:18;;;;;;;1.45;0.95;;;3.40;85.80;;;;;;5036131;28;20029;-77